Rosston, Texas
Current Conditions -  °F | °C
As of 7:55 AM on Friday 24 Oct 2014 (Local Time) from KLUD Reporting Station
Clear Clear  
Wind Chill: 60°   Ceiling: Unl
Heat Index: 60°   Visibility: 10mi
Dew Point: 55°   Wind: 6mph
Humidity: 81%   Direction: 130°SE
Pressure: 30.13"   Gusts: NA
Location:  33.48°N, 97.44°W
Report Text: KLUD 241255Z AUTO 13005KT 10SM CLR 16/13 A3013 RMK AO2 T01580125
Loading
Personal Weather Stations






























Interactive Weather Map
Tropical Storm Tracking
New forecast layout! Learn more

10-Day Weather Forecast

Advertisements
Track Severe Weather on mobile